KSBA

Santa Barbara Municipal Airport

Santa Barbara, California, USA
METAR KSBA 231053Z AUTO 02006KT 7SM CLR 15/14 A2988 RMK AO2 SLP118 T01500139
Observed Flight Rules
Oct-23 @ 10:53 UTC (55 minutes ago) Visual Flight Rules
Wind Visibility Clouds
20° at 6 knots 7 miles
  • Clear skies
Temperatures Readings
Current 15°C / 59°F
Dewpoint 14°C / 57°F
Humidity 94%
Altimeter 29.88" Hg
Pressure 1011.8 hPa
Elevation 3
METAR KSBA 231053Z AUTO 02006KT 7SM CLR 15/14 A2988 RMK AO2 SLP118 T01500139
Observed Flight Rules
Oct-23 @ 10:53 UTC
(55 minutes ago)
VFR
Wind Visibility
20° at 6 knots 7 miles
Clouds
  • Clear skies
Temperature Dewpoint
15°C / 59°F 14°C / 57°F
Humidity Altimeter Pressure
94% 29.88" Hg 1011.8 hPa